Luminarias, Brazil
Current Conditions -  °F | °C
As of 5:00 PM on Monday 22 Dec 2014 (Local Time) from SBBQ Reporting Station
Broken Clouds Broken Clouds  
Wind Chill: 82°   Ceiling: 3700
Heat Index: 83°   Visibility: 6mi
Dew Point: 63°   Wind: 7mph
Humidity: 51%   Direction: 310°NW
Pressure: 30.03"   Gusts: NA
Location:  21.51°S, 44.9°W
Report Text: SBBQ 221900Z 31006KT 9999 BKN037 28/17 Q1017
Loading
Personal Weather Stations






























Interactive Weather Map New forecast layout! Learn more

10-Day Weather Forecast

Advertisements
Track Severe Weather on mobile